This is the latest recevied weather packets stored in our database for station/object HA8LNU. If no packets are shown the sender has not sent any weather packets the latest 10 day(s).
| Time | Temp. | Humidity | Pressure | Rain* | Wind** | Luminosity | Snow |
|---|---|---|---|---|---|---|---|
| 1777975888 | 28.89° C | 18% | 1015.7 hPa | 0 mm | - | - | - |
| 1777972898 | 27.78° C | 20% | 1016.1 hPa | 0 mm | - | - | - |
| 1777965030 | 22.78° C | 33% | 1017 hPa | 0 mm | - | - | - |
| 1777956059 | 8.89° C | 74% | 1016.9 hPa | 0 mm | - | - | - |
| 1777954854 | 7.22° C | 83% | 1016.9 hPa | 0 mm | - | - | - |
| 1777954273 | 6.11° C | 83% | 1016.8 hPa | 0 mm | - | - | - |
| 1777947629 | 6.67° C | 79% | 1017 hPa | 0 mm | - | - | - |
| 1777942872 | 6.67° C | 84% | 1016.6 hPa | 0 mm | - | - | - |
| 1777939260 | 6.67° C | 82% | 1017 hPa | 0 mm | - | - | - |
| 1777938658 | 6.67° C | 82% | 1017 hPa | 0 mm | - | - | - |
| 1777933841 | 8.33° C | 73% | 1017.5 hPa | 0 mm | - | - | - |
| 1777924869 | 11.11° C | 60% | 1017.3 hPa | 0 mm | - | - | - |
| 1777923083 | 11.67° C | 56% | 1017.3 hPa | 0 mm | - | - | - |
| 1777920655 | 13.89° C | 50% | 1017.4 hPa | 0 mm | - | - | - |
| 1777920052 | 13.89° C | 48% | 1017.3 hPa | 0 mm | - | - | - |
| 1777919470 | 14.44° C | 48% | 1017.2 hPa | 0 mm | - | - | - |
| 1777917042 | 17.22° C | 39% | 1017 hPa | 0 mm | - | - | - |
| 1777915838 | 19.44° C | 31% | 1016.9 hPa | 0 mm | - | - | - |
| 1777908070 | 27.22° C | 20% | 1017.2 hPa | 0 mm | - | - | - |
| 1777903856 | 28.89° C | 14% | 1017.7 hPa | 0 mm | - | - | - |
| 1777901447 | 27.78° C | 14% | 1018.2 hPa | 0 mm | - | - | - |
| 1777900845 | 27.78° C | 14% | 1018.3 hPa | 0 mm | - | - | - |
| 1777891874 | 26.67° C | 21% | 1020.2 hPa | 0 mm | - | - | - |
| 1777888261 | 25° C | 21% | 1020.9 hPa | 0 mm | - | - | - |
| 1777885250 | 24.44° C | 22% | 1021.4 hPa | 0 mm | - | - | - |
* Rain latest hour (hover to see other rain measurements)
** Current wind speed in m/s (hover to see current wind gust speed)